sensor_id;sensor_type;location;lat;lon;timestamp;P1;durP1;ratioP1;P2;durP2;ratioP2
44728;SDS011;30457;53.590;9.922;2022-11-04T00:01:37;3.33;;;2.17;;
44728;SDS011;30457;53.590;9.922;2022-11-04T00:06:04;2.90;;;2.25;;
44728;SDS011;30457;53.590;9.922;2022-11-04T00:10:30;2.92;;;2.05;;
44728;SDS011;30457;53.590;9.922;2022-11-04T00:15:14;3.30;;;2.03;;
44728;SDS011;30457;53.590;9.922;2022-11-04T00:19:59;5.22;;;1.98;;
44728;SDS011;30457;53.590;9.922;2022-11-04T00:24:43;4.30;;;1.90;;
44728;SDS011;30457;53.590;9.922;2022-11-04T00:29:09;4.53;;;2.03;;
44728;SDS011;30457;53.590;9.922;2022-11-04T00:33:34;7.40;;;2.00;;
44728;SDS011;30457;53.590;9.922;2022-11-04T00:38:00;4.35;;;2.25;;
44728;SDS011;30457;53.590;9.922;2022-11-04T00:42:26;7.57;;;2.22;;
44728;SDS011;30457;53.590;9.922;2022-11-04T00:46:51;5.10;;;2.50;;
44728;SDS011;30457;53.590;9.922;2022-11-04T00:51:17;7.80;;;3.03;;
44728;SDS011;30457;53.590;9.922;2022-11-04T00:55:43;5.00;;;2.50;;
44728;SDS011;30457;53.590;9.922;2022-11-04T01:00:09;10.63;;;2.83;;
44728;SDS011;30457;53.590;9.922;2022-11-04T01:04:35;2.47;;;2.28;;
44728;SDS011;30457;53.590;9.922;2022-11-04T01:09:02;7.32;;;2.38;;
44728;SDS011;30457;53.590;9.922;2022-11-04T01:13:32;3.45;;;2.17;;
44728;SDS011;30457;53.590;9.922;2022-11-04T01:17:57;3.15;;;2.28;;
44728;SDS011;30457;53.590;9.922;2022-11-04T01:22:23;3.55;;;2.13;;
44728;SDS011;30457;53.590;9.922;2022-11-04T01:26:48;6.35;;;2.72;;
44728;SDS011;30457;53.590;9.922;2022-11-04T01:31:15;5.03;;;2.10;;
44728;SDS011;30457;53.590;9.922;2022-11-04T01:35:45;5.18;;;2.33;;
44728;SDS011;30457;53.590;9.922;2022-11-04T01:40:11;3.92;;;2.60;;
44728;SDS011;30457;53.590;9.922;2022-11-04T01:44:49;3.17;;;1.95;;
44728;SDS011;30457;53.590;9.922;2022-11-04T01:49:24;4.70;;;2.45;;
44728;SDS011;30457;53.590;9.922;2022-11-04T01:53:59;7.22;;;2.30;;
44728;SDS011;30457;53.590;9.922;2022-11-04T01:58:27;3.85;;;1.88;;
44728;SDS011;30457;53.590;9.922;2022-11-04T02:02:57;5.10;;;2.63;;
44728;SDS011;30457;53.590;9.922;2022-11-04T02:07:29;5.20;;;2.58;;
44728;SDS011;30457;53.590;9.922;2022-11-04T02:11:56;2.63;;;1.92;;
44728;SDS011;30457;53.590;9.922;2022-11-04T02:16:44;5.40;;;2.08;;
44728;SDS011;30457;53.590;9.922;2022-11-04T02:26:10;3.28;;;2.15;;
44728;SDS011;30457;53.590;9.922;2022-11-04T02:31:09;4.38;;;2.72;;
44728;SDS011;30457;53.590;9.922;2022-11-04T02:36:09;6.85;;;2.53;;
44728;SDS011;30457;53.590;9.922;2022-11-04T02:40:55;3.63;;;2.42;;
44728;SDS011;30457;53.590;9.922;2022-11-04T02:54:53;4.25;;;2.53;;
44728;SDS011;30457;53.590;9.922;2022-11-04T03:04:15;3.55;;;2.22;;
44728;SDS011;30457;53.590;9.922;2022-11-04T03:08:46;3.53;;;2.08;;
44728;SDS011;30457;53.590;9.922;2022-11-04T03:13:16;6.05;;;2.35;;
44728;SDS011;30457;53.590;9.922;2022-11-04T03:17:57;4.55;;;2.00;;
44728;SDS011;30457;53.590;9.922;2022-11-04T03:22:38;4.05;;;1.80;;
44728;SDS011;30457;53.590;9.922;2022-11-04T03:27:05;6.65;;;2.50;;
44728;SDS011;30457;53.590;9.922;2022-11-04T03:36:33;3.47;;;2.20;;
44728;SDS011;30457;53.590;9.922;2022-11-04T03:40:58;2.78;;;2.20;;
44728;SDS011;30457;53.590;9.922;2022-11-04T03:45:27;3.70;;;2.28;;
44728;SDS011;30457;53.590;9.922;2022-11-04T03:54:37;4.65;;;2.15;;
44728;SDS011;30457;53.590;9.922;2022-11-04T04:04:02;4.50;;;2.30;;
44728;SDS011;30457;53.590;9.922;2022-11-04T04:13:44;9.48;;;3.10;;
44728;SDS011;30457;53.590;9.922;2022-11-04T04:18:42;4.60;;;3.05;;
44728;SDS011;30457;53.590;9.922;2022-11-04T04:23:17;5.50;;;3.00;;
44728;SDS011;30457;53.590;9.922;2022-11-04T04:28:06;4.97;;;2.80;;
44728;SDS011;30457;53.590;9.922;2022-11-04T04:32:36;4.63;;;2.17;;
44728;SDS011;30457;53.590;9.922;2022-11-04T04:37:18;4.50;;;1.83;;
44728;SDS011;30457;53.590;9.922;2022-11-04T04:41:47;4.20;;;1.42;;
44728;SDS011;30457;53.590;9.922;2022-11-04T04:46:31;6.07;;;1.95;;
44728;SDS011;30457;53.590;9.922;2022-11-04T04:50:58;1.88;;;1.50;;
44728;SDS011;30457;53.590;9.922;2022-11-04T04:55:26;3.10;;;1.40;;
44728;SDS011;30457;53.590;9.922;2022-11-04T04:59:51;1.88;;;1.23;;
44728;SDS011;30457;53.590;9.922;2022-11-04T05:04:17;2.00;;;1.08;;
44728;SDS011;30457;53.590;9.922;2022-11-04T05:08:42;1.20;;;1.10;;
44728;SDS011;30457;53.590;9.922;2022-11-04T05:13:08;1.23;;;1.05;;
44728;SDS011;30457;53.590;9.922;2022-11-04T05:17:55;0.95;;;0.90;;
44728;SDS011;30457;53.590;9.922;2022-11-04T05:22:23;1.25;;;0.95;;
44728;SDS011;30457;53.590;9.922;2022-11-04T05:26:49;0.85;;;0.80;;
44728;SDS011;30457;53.590;9.922;2022-11-04T05:31:14;1.05;;;0.95;;
44728;SDS011;30457;53.590;9.922;2022-11-04T05:35:40;0.80;;;0.80;;
44728;SDS011;30457;53.590;9.922;2022-11-04T05:40:06;0.98;;;0.82;;
44728;SDS011;30457;53.590;9.922;2022-11-04T05:44:32;2.33;;;1.75;;
44728;SDS011;30457;53.590;9.922;2022-11-04T05:48:57;0.95;;;0.88;;
44728;SDS011;30457;53.590;9.922;2022-11-04T05:53:23;2.83;;;0.90;;
44728;SDS011;30457;53.590;9.922;2022-11-04T05:57:48;1.90;;;1.15;;
44728;SDS011;30457;53.590;9.922;2022-11-04T06:02:14;2.53;;;1.13;;
44728;SDS011;30457;53.590;9.922;2022-11-04T06:06:40;1.30;;;1.20;;
44728;SDS011;30457;53.590;9.922;2022-11-04T06:11:05;1.30;;;1.20;;
44728;SDS011;30457;53.590;9.922;2022-11-04T06:15:31;2.63;;;1.20;;
44728;SDS011;30457;53.590;9.922;2022-11-04T06:19:57;1.73;;;1.20;;
44728;SDS011;30457;53.590;9.922;2022-11-04T06:24:22;1.30;;;1.17;;
44728;SDS011;30457;53.590;9.922;2022-11-04T06:28:48;1.80;;;1.42;;
44728;SDS011;30457;53.590;9.922;2022-11-04T06:33:13;1.20;;;1.10;;
44728;SDS011;30457;53.590;9.922;2022-11-04T06:37:39;1.40;;;1.30;;
44728;SDS011;30457;53.590;9.922;2022-11-04T06:42:05;1.65;;;1.55;;
44728;SDS011;30457;53.590;9.922;2022-11-04T06:46:35;1.70;;;1.60;;
44728;SDS011;30457;53.590;9.922;2022-11-04T06:51:02;1.50;;;1.40;;
44728;SDS011;30457;53.590;9.922;2022-11-04T06:55:27;2.25;;;1.63;;
44728;SDS011;30457;53.590;9.922;2022-11-04T06:59:53;1.85;;;1.70;;
44728;SDS011;30457;53.590;9.922;2022-11-04T07:04:18;1.85;;;1.65;;
44728;SDS011;30457;53.590;9.922;2022-11-04T07:08:44;2.63;;;1.75;;
44728;SDS011;30457;53.590;9.922;2022-11-04T07:13:11;2.00;;;1.80;;
44728;SDS011;30457;53.590;9.922;2022-11-04T07:17:36;2.72;;;1.90;;
44728;SDS011;30457;53.590;9.922;2022-11-04T07:22:02;2.03;;;1.70;;
44728;SDS011;30457;53.590;9.922;2022-11-04T07:26:27;2.95;;;2.10;;
44728;SDS011;30457;53.590;9.922;2022-11-04T07:30:56;2.70;;;1.98;;
44728;SDS011;30457;53.590;9.922;2022-11-04T07:35:23;2.55;;;2.13;;
44728;SDS011;30457;53.590;9.922;2022-11-04T07:39:49;3.05;;;1.88;;
44728;SDS011;30457;53.590;9.922;2022-11-04T07:44:15;2.70;;;2.20;;
44728;SDS011;30457;53.590;9.922;2022-11-04T07:48:42;2.88;;;2.33;;
44728;SDS011;30457;53.590;9.922;2022-11-04T07:53:08;3.63;;;2.30;;
44728;SDS011;30457;53.590;9.922;2022-11-04T07:57:35;6.43;;;2.47;;
44728;SDS011;30457;53.590;9.922;2022-11-04T08:02:01;4.03;;;2.50;;
44728;SDS011;30457;53.590;9.922;2022-11-04T08:06:27;4.25;;;2.58;;
44728;SDS011;30457;53.590;9.922;2022-11-04T08:11:03;3.97;;;2.50;;
44728;SDS011;30457;53.590;9.922;2022-11-04T08:15:34;2.65;;;2.33;;
44728;SDS011;30457;53.590;9.922;2022-11-04T08:20:00;4.78;;;2.38;;
44728;SDS011;30457;53.590;9.922;2022-11-04T08:24:25;3.55;;;2.97;;
44728;SDS011;30457;53.590;9.922;2022-11-04T08:28:51;5.20;;;2.63;;
44728;SDS011;30457;53.590;9.922;2022-11-04T08:33:17;2.75;;;2.50;;
44728;SDS011;30457;53.590;9.922;2022-11-04T08:37:42;5.55;;;2.80;;
44728;SDS011;30457;53.590;9.922;2022-11-04T08:42:08;2.50;;;2.25;;
44728;SDS011;30457;53.590;9.922;2022-11-04T08:46:35;2.70;;;2.50;;
44728;SDS011;30457;53.590;9.922;2022-11-04T08:51:04;3.42;;;2.35;;
44728;SDS011;30457;53.590;9.922;2022-11-04T08:55:35;2.30;;;2.10;;
44728;SDS011;30457;53.590;9.922;2022-11-04T09:00:00;2.90;;;2.30;;
44728;SDS011;30457;53.590;9.922;2022-11-04T09:04:27;3.25;;;2.45;;
44728;SDS011;30457;53.590;9.922;2022-11-04T09:08:52;3.35;;;2.38;;
44728;SDS011;30457;53.590;9.922;2022-11-04T09:13:25;3.00;;;2.65;;
44728;SDS011;30457;53.590;9.922;2022-11-04T09:17:51;3.80;;;2.67;;
44728;SDS011;30457;53.590;9.922;2022-11-04T09:22:17;4.50;;;2.42;;
44728;SDS011;30457;53.590;9.922;2022-11-04T09:26:42;4.07;;;2.03;;
44728;SDS011;30457;53.590;9.922;2022-11-04T09:31:11;3.92;;;1.88;;
44728;SDS011;30457;53.590;9.922;2022-11-04T09:35:40;2.30;;;1.77;;
44728;SDS011;30457;53.590;9.922;2022-11-04T09:40:06;3.70;;;2.03;;
44728;SDS011;30457;53.590;9.922;2022-11-04T09:44:41;1.70;;;1.45;;
44728;SDS011;30457;53.590;9.922;2022-11-04T09:49:27;1.65;;;1.55;;
44728;SDS011;30457;53.590;9.922;2022-11-04T09:53:57;2.55;;;1.65;;
44728;SDS011;30457;53.590;9.922;2022-11-04T09:58:33;1.98;;;1.52;;
44728;SDS011;30457;53.590;9.922;2022-11-04T10:08:19;1.40;;;1.30;;
44728;SDS011;30457;53.590;9.922;2022-11-04T10:13:13;1.55;;;1.35;;
44728;SDS011;30457;53.590;9.922;2022-11-04T10:17:59;2.63;;;1.42;;
44728;SDS011;30457;53.590;9.922;2022-11-04T10:27:22;1.42;;;1.30;;
44728;SDS011;30457;53.590;9.922;2022-11-04T10:31:52;1.38;;;1.27;;
44728;SDS011;30457;53.590;9.922;2022-11-04T10:36:19;1.58;;;1.48;;
44728;SDS011;30457;53.590;9.922;2022-11-04T10:40:47;2.22;;;1.48;;
44728;SDS011;30457;53.590;9.922;2022-11-04T10:45:15;2.83;;;1.10;;
44728;SDS011;30457;53.590;9.922;2022-11-04T10:54:48;1.75;;;0.90;;
44728;SDS011;30457;53.590;9.922;2022-11-04T10:59:16;1.00;;;0.90;;
44728;SDS011;30457;53.590;9.922;2022-11-04T11:04:05;2.63;;;1.35;;
44728;SDS011;30457;53.590;9.922;2022-11-04T11:08:32;3.50;;;1.95;;
44728;SDS011;30457;53.590;9.922;2022-11-04T11:13:05;1.65;;;0.82;;
44728;SDS011;30457;53.590;9.922;2022-11-04T11:17:47;1.13;;;0.90;;
44728;SDS011;30457;53.590;9.922;2022-11-04T11:22:26;1.25;;;0.80;;
44728;SDS011;30457;53.590;9.922;2022-11-04T11:27:08;1.02;;;0.70;;
44728;SDS011;30457;53.590;9.922;2022-11-04T11:31:39;0.90;;;0.40;;
44728;SDS011;30457;53.590;9.922;2022-11-04T11:36:05;1.02;;;0.47;;
44728;SDS011;30457;53.590;9.922;2022-11-04T11:40:43;2.08;;;0.82;;
44728;SDS011;30457;53.590;9.922;2022-11-04T11:45:14;1.05;;;0.80;;
44728;SDS011;30457;53.590;9.922;2022-11-04T11:49:40;12.90;;;1.27;;
44728;SDS011;30457;53.590;9.922;2022-11-04T11:54:12;0.90;;;0.55;;
44728;SDS011;30457;53.590;9.922;2022-11-04T11:58:45;0.98;;;0.40;;
44728;SDS011;30457;53.590;9.922;2022-11-04T12:03:18;1.38;;;0.40;;
44728;SDS011;30457;53.590;9.922;2022-11-04T12:07:56;2.15;;;0.40;;
44728;SDS011;30457;53.590;9.922;2022-11-04T12:22:23;3.72;;;0.50;;
44728;SDS011;30457;53.590;9.922;2022-11-04T12:27:02;1.70;;;0.88;;
44728;SDS011;30457;53.590;9.922;2022-11-04T12:31:54;2.17;;;0.50;;
44728;SDS011;30457;53.590;9.922;2022-11-04T12:41:38;1.55;;;0.40;;
44728;SDS011;30457;53.590;9.922;2022-11-04T12:50:59;2.50;;;0.65;;
44728;SDS011;30457;53.590;9.922;2022-11-04T12:55:52;1.38;;;0.65;;
44728;SDS011;30457;53.590;9.922;2022-11-04T13:00:31;3.13;;;0.52;;
44728;SDS011;30457;53.590;9.922;2022-11-04T13:09:51;1.48;;;0.60;;
44728;SDS011;30457;53.590;9.922;2022-11-04T13:14:22;3.03;;;0.68;;
44728;SDS011;30457;53.590;9.922;2022-11-04T13:18:54;2.95;;;0.50;;
44728;SDS011;30457;53.590;9.922;2022-11-04T13:23:23;2.00;;;0.70;;
44728;SDS011;30457;53.590;9.922;2022-11-04T13:27:56;3.00;;;0.50;;
44728;SDS011;30457;53.590;9.922;2022-11-04T13:32:27;3.78;;;0.75;;
44728;SDS011;30457;53.590;9.922;2022-11-04T13:41:58;1.73;;;0.80;;
44728;SDS011;30457;53.590;9.922;2022-11-04T13:46:50;1.80;;;0.50;;
44728;SDS011;30457;53.590;9.922;2022-11-04T13:51:18;2.30;;;0.45;;
44728;SDS011;30457;53.590;9.922;2022-11-04T13:55:48;3.20;;;0.57;;
44728;SDS011;30457;53.590;9.922;2022-11-04T14:04:41;2.80;;;0.40;;
44728;SDS011;30457;53.590;9.922;2022-11-04T14:09:23;2.95;;;0.40;;
44728;SDS011;30457;53.590;9.922;2022-11-04T14:14:02;3.88;;;0.65;;
44728;SDS011;30457;53.590;9.922;2022-11-04T14:18:29;4.40;;;0.65;;
44728;SDS011;30457;53.590;9.922;2022-11-04T14:23:05;1.88;;;0.57;;
44728;SDS011;30457;53.590;9.922;2022-11-04T14:27:50;1.13;;;0.50;;
44728;SDS011;30457;53.590;9.922;2022-11-04T14:32:30;1.40;;;0.43;;
44728;SDS011;30457;53.590;9.922;2022-11-04T14:37:00;1.80;;;0.47;;
44728;SDS011;30457;53.590;9.922;2022-11-04T14:46:16;0.73;;;0.47;;
44728;SDS011;30457;53.590;9.922;2022-11-04T14:50:48;1.85;;;0.60;;
44728;SDS011;30457;53.590;9.922;2022-11-04T14:55:17;1.38;;;0.70;;
44728;SDS011;30457;53.590;9.922;2022-11-04T14:59:50;2.97;;;0.60;;
44728;SDS011;30457;53.590;9.922;2022-11-04T15:04:25;4.25;;;0.60;;
44728;SDS011;30457;53.590;9.922;2022-11-04T15:08:53;2.38;;;0.63;;
44728;SDS011;30457;53.590;9.922;2022-11-04T15:13:19;1.65;;;0.50;;
44728;SDS011;30457;53.590;9.922;2022-11-04T15:17:45;3.13;;;1.15;;
44728;SDS011;30457;53.590;9.922;2022-11-04T15:22:11;4.93;;;0.93;;
44728;SDS011;30457;53.590;9.922;2022-11-04T15:26:36;1.17;;;0.73;;
44728;SDS011;30457;53.590;9.922;2022-11-04T15:35:39;3.88;;;0.60;;
44728;SDS011;30457;53.590;9.922;2022-11-04T15:40:07;9.50;;;1.00;;
44728;SDS011;30457;53.590;9.922;2022-11-04T15:44:43;3.25;;;0.88;;
44728;SDS011;30457;53.590;9.922;2022-11-04T15:49:17;1.02;;;0.70;;
44728;SDS011;30457;53.590;9.922;2022-11-04T15:53:57;5.43;;;0.93;;
44728;SDS011;30457;53.590;9.922;2022-11-04T15:58:32;1.98;;;0.85;;
44728;SDS011;30457;53.590;9.922;2022-11-04T16:02:59;4.68;;;0.80;;
44728;SDS011;30457;53.590;9.922;2022-11-04T16:07:28;3.03;;;0.93;;
44728;SDS011;30457;53.590;9.922;2022-11-04T16:12:10;1.98;;;0.73;;
44728;SDS011;30457;53.590;9.922;2022-11-04T16:16:39;2.58;;;0.80;;
44728;SDS011;30457;53.590;9.922;2022-11-04T16:21:13;5.13;;;1.10;;
44728;SDS011;30457;53.590;9.922;2022-11-04T16:25:55;1.10;;;0.77;;
44728;SDS011;30457;53.590;9.922;2022-11-04T16:30:23;8.02;;;1.13;;
44728;SDS011;30457;53.590;9.922;2022-11-04T16:34:50;5.22;;;1.65;;
44728;SDS011;30457;53.590;9.922;2022-11-04T16:39:17;27.42;;;12.90;;
44728;SDS011;30457;53.590;9.922;2022-11-04T16:43:43;13.48;;;5.32;;
44728;SDS011;30457;53.590;9.922;2022-11-04T16:48:09;15.32;;;5.93;;
44728;SDS011;30457;53.590;9.922;2022-11-04T16:52:40;22.83;;;11.10;;
44728;SDS011;30457;53.590;9.922;2022-11-04T16:57:06;17.02;;;8.32;;
44728;SDS011;30457;53.590;9.922;2022-11-04T17:01:35;17.83;;;6.40;;
44728;SDS011;30457;53.590;9.922;2022-11-04T17:06:03;29.83;;;7.60;;
44728;SDS011;30457;53.590;9.922;2022-11-04T17:10:29;7.88;;;3.47;;
44728;SDS011;30457;53.590;9.922;2022-11-04T17:14:56;4.32;;;1.83;;
44728;SDS011;30457;53.590;9.922;2022-11-04T17:19:21;8.25;;;1.67;;
44728;SDS011;30457;53.590;9.922;2022-11-04T17:23:48;3.70;;;1.67;;
44728;SDS011;30457;53.590;9.922;2022-11-04T17:28:14;9.93;;;1.65;;
44728;SDS011;30457;53.590;9.922;2022-11-04T17:32:40;2.13;;;1.30;;
44728;SDS011;30457;53.590;9.922;2022-11-04T17:37:07;9.05;;;1.90;;
44728;SDS011;30457;53.590;9.922;2022-11-04T17:41:36;16.17;;;6.63;;
44728;SDS011;30457;53.590;9.922;2022-11-04T17:46:20;19.55;;;8.82;;
44728;SDS011;30457;53.590;9.922;2022-11-04T17:50:58;11.38;;;4.65;;
44728;SDS011;30457;53.590;9.922;2022-11-04T17:55:23;5.25;;;2.45;;
44728;SDS011;30457;53.590;9.922;2022-11-04T17:59:49;7.20;;;1.90;;
44728;SDS011;30457;53.590;9.922;2022-11-04T18:04:16;4.35;;;1.35;;
44728;SDS011;30457;53.590;9.922;2022-11-04T18:08:46;4.85;;;1.85;;
44728;SDS011;30457;53.590;9.922;2022-11-04T18:13:12;2.65;;;1.10;;
44728;SDS011;30457;53.590;9.922;2022-11-04T18:17:38;4.70;;;1.27;;
44728;SDS011;30457;53.590;9.922;2022-11-04T18:22:05;3.42;;;1.05;;
44728;SDS011;30457;53.590;9.922;2022-11-04T18:26:30;4.97;;;1.65;;
44728;SDS011;30457;53.590;9.922;2022-11-04T18:30:56;3.63;;;1.27;;
44728;SDS011;30457;53.590;9.922;2022-11-04T18:35:21;8.93;;;2.25;;
44728;SDS011;30457;53.590;9.922;2022-11-04T18:39:47;6.72;;;2.20;;
44728;SDS011;30457;53.590;9.922;2022-11-04T18:44:14;6.05;;;2.00;;
44728;SDS011;30457;53.590;9.922;2022-11-04T18:48:45;4.68;;;1.80;;
44728;SDS011;30457;53.590;9.922;2022-11-04T18:53:13;7.47;;;2.38;;
44728;SDS011;30457;53.590;9.922;2022-11-04T18:57:39;12.32;;;6.00;;
44728;SDS011;30457;53.590;9.922;2022-11-04T19:02:05;11.63;;;6.00;;
44728;SDS011;30457;53.590;9.922;2022-11-04T19:06:33;13.32;;;7.22;;
44728;SDS011;30457;53.590;9.922;2022-11-04T19:11:00;8.80;;;3.90;;
44728;SDS011;30457;53.590;9.922;2022-11-04T19:15:33;11.45;;;4.50;;
44728;SDS011;30457;53.590;9.922;2022-11-04T19:19:59;10.32;;;3.33;;
44728;SDS011;30457;53.590;9.922;2022-11-04T19:24:25;11.32;;;3.83;;
44728;SDS011;30457;53.590;9.922;2022-11-04T19:28:52;9.60;;;4.20;;
44728;SDS011;30457;53.590;9.922;2022-11-04T19:33:18;6.22;;;2.28;;
44728;SDS011;30457;53.590;9.922;2022-11-04T19:37:44;6.13;;;2.13;;
44728;SDS011;30457;53.590;9.922;2022-11-04T19:42:10;8.50;;;1.98;;
44728;SDS011;30457;53.590;9.922;2022-11-04T19:46:55;4.17;;;2.07;;
44728;SDS011;30457;53.590;9.922;2022-11-04T19:51:20;2.72;;;1.33;;
44728;SDS011;30457;53.590;9.922;2022-11-04T19:55:50;6.90;;;2.05;;
44728;SDS011;30457;53.590;9.922;2022-11-04T20:00:17;4.35;;;1.65;;
44728;SDS011;30457;53.590;9.922;2022-11-04T20:04:43;8.43;;;2.20;;
44728;SDS011;30457;53.590;9.922;2022-11-04T20:09:10;6.05;;;2.20;;
44728;SDS011;30457;53.590;9.922;2022-11-04T20:13:36;5.93;;;2.50;;
44728;SDS011;30457;53.590;9.922;2022-11-04T20:18:11;5.23;;;2.73;;
44728;SDS011;30457;53.590;9.922;2022-11-04T20:22:36;3.70;;;2.45;;
44728;SDS011;30457;53.590;9.922;2022-11-04T20:27:02;8.63;;;3.20;;
44728;SDS011;30457;53.590;9.922;2022-11-04T20:31:29;12.65;;;2.88;;
44728;SDS011;30457;53.590;9.922;2022-11-04T20:35:57;5.97;;;2.42;;
44728;SDS011;30457;53.590;9.922;2022-11-04T20:40:23;6.53;;;1.88;;
44728;SDS011;30457;53.590;9.922;2022-11-04T20:44:49;5.63;;;1.75;;
44728;SDS011;30457;53.590;9.922;2022-11-04T20:49:16;4.30;;;1.70;;
44728;SDS011;30457;53.590;9.922;2022-11-04T20:53:42;6.30;;;2.97;;
44728;SDS011;30457;53.590;9.922;2022-11-04T20:58:09;6.07;;;3.35;;
44728;SDS011;30457;53.590;9.922;2022-11-04T21:02:35;10.38;;;4.05;;
44728;SDS011;30457;53.590;9.922;2022-11-04T21:07:01;8.10;;;3.08;;
44728;SDS011;30457;53.590;9.922;2022-11-04T21:11:26;4.22;;;2.97;;
44728;SDS011;30457;53.590;9.922;2022-11-04T21:15:53;12.73;;;4.50;;
44728;SDS011;30457;53.590;9.922;2022-11-04T21:20:19;6.72;;;2.50;;
44728;SDS011;30457;53.590;9.922;2022-11-04T21:24:45;2.92;;;1.58;;
44728;SDS011;30457;53.590;9.922;2022-11-04T21:29:12;6.93;;;3.13;;
44728;SDS011;30457;53.590;9.922;2022-11-04T21:33:39;3.72;;;2.33;;
44728;SDS011;30457;53.590;9.922;2022-11-04T21:38:05;8.30;;;2.45;;
44728;SDS011;30457;53.590;9.922;2022-11-04T21:42:32;4.80;;;1.80;;
44728;SDS011;30457;53.590;9.922;2022-11-04T21:46:59;4.32;;;1.30;;
44728;SDS011;30457;53.590;9.922;2022-11-04T21:51:26;6.13;;;1.33;;
44728;SDS011;30457;53.590;9.922;2022-11-04T21:56:03;4.45;;;1.60;;
44728;SDS011;30457;53.590;9.922;2022-11-04T22:00:29;3.28;;;1.40;;
44728;SDS011;30457;53.590;9.922;2022-11-04T22:04:55;3.80;;;1.30;;
44728;SDS011;30457;53.590;9.922;2022-11-04T22:09:20;4.05;;;1.45;;
44728;SDS011;30457;53.590;9.922;2022-11-04T22:13:46;3.72;;;1.50;;
44728;SDS011;30457;53.590;9.922;2022-11-04T22:18:13;4.40;;;1.70;;
44728;SDS011;30457;53.590;9.922;2022-11-04T22:22:39;2.63;;;1.52;;
44728;SDS011;30457;53.590;9.922;2022-11-04T22:27:05;6.85;;;1.95;;
44728;SDS011;30457;53.590;9.922;2022-11-04T22:31:31;4.10;;;2.25;;
44728;SDS011;30457;53.590;9.922;2022-11-04T22:35:59;4.18;;;1.90;;
44728;SDS011;30457;53.590;9.922;2022-11-04T22:40:24;8.77;;;3.03;;
44728;SDS011;30457;53.590;9.922;2022-11-04T22:44:50;8.63;;;1.80;;
44728;SDS011;30457;53.590;9.922;2022-11-04T22:49:16;5.68;;;1.50;;
44728;SDS011;30457;53.590;9.922;2022-11-04T22:53:41;5.30;;;1.60;;
44728;SDS011;30457;53.590;9.922;2022-11-04T22:58:07;3.88;;;1.63;;
44728;SDS011;30457;53.590;9.922;2022-11-04T23:02:33;6.60;;;1.80;;
44728;SDS011;30457;53.590;9.922;2022-11-04T23:06:59;4.15;;;1.60;;
44728;SDS011;30457;53.590;9.922;2022-11-04T23:11:25;3.83;;;1.80;;
44728;SDS011;30457;53.590;9.922;2022-11-04T23:16:10;3.30;;;1.50;;
44728;SDS011;30457;53.590;9.922;2022-11-04T23:20:55;3.17;;;1.30;;
44728;SDS011;30457;53.590;9.922;2022-11-04T23:25:40;5.82;;;1.50;;
44728;SDS011;30457;53.590;9.922;2022-11-04T23:30:06;3.10;;;1.80;;
44728;SDS011;30457;53.590;9.922;2022-11-04T23:34:45;4.22;;;1.70;;
44728;SDS011;30457;53.590;9.922;2022-11-04T23:39:29;8.57;;;1.90;;
44728;SDS011;30457;53.590;9.922;2022-11-04T23:43:54;5.32;;;1.77;;
44728;SDS011;30457;53.590;9.922;2022-11-04T23:48:20;3.95;;;1.60;;
44728;SDS011;30457;53.590;9.922;2022-11-04T23:53:04;3.05;;;1.35;;
44728;SDS011;30457;53.590;9.922;2022-11-04T23:57:49;3.03;;;1.65;;
